Eureka の空港の天気 - METARとTAF

Eureka ( CWEU / ) - カナダ ヌナブト準州Eureka
飛行場実況気象(Metar)
観測時間08/25 14:00 CDT (08/25 19:00 UTC)
風向・風速南 7m/s
視程10km以上
天気現象
少しの雲 雲底高度 910m
全天の4割程度の雲 雲底高度 2290m
全天の4割程度の雲 雲底高度 3960m
全天の4割程度の雲 雲底高度 6710m
気温6℃
湿度65%
気圧1004.7hPa
METARCWEU 251900Z 18013KT 15SM FEW030 SCT075 SCT130 SCT220 06/M00 A2966 RMK SC2AC1AC1CI1 AC TR CI TR SLP047
過去の天気等 Google飛行場航空写真 Wunderground天気予報

過去48時間のMETAR

飛行場予報(TAF)
データがありません